Time;durP1;ratioP1;P1;durP2;ratioP2;P2;SDS_P1;SDS_P2;PMS_P1;PMS_P2;Temp;Humidity;BMP_temperature;BMP_pressure;BME280_temperature;BME280_humidity;BME280_pressure;Samples;Min_cycle;Max_cycle;Signal;HPM_P1;HPM_P2
2023/03/19 00:01:43;;;;;;;9.20;3.23;;;;;;;3.27;30.98;100679.28;5020752;28;20040;-65
2023/03/19 00:04:10;;;;;;;11.37;3.70;;;;;;;3.51;30.75;100670.94;5039303;28;20099;-65
2023/03/19 00:06:36;;;;;;;7.43;3.57;;;;;;;3.26;30.82;100669.69;5039243;28;20037;-66
2023/03/19 00:09:02;;;;;;;9.27;3.53;;;;;;;3.45;30.68;100664.22;5006133;28;20071;-65
2023/03/19 00:11:27;;;;;;;7.23;3.60;;;;;;;3.23;30.92;100663.75;5039191;28;20128;-65
2023/03/19 00:13:53;;;;;;;9.90;3.57;;;;;;;3.10;31.22;100663.63;5055645;28;20055;-66
2023/03/19 00:16:19;;;;;;;7.50;3.50;;;;;;;3.23;31.65;100662.00;5039075;28;20106;-67
2023/03/19 00:18:45;;;;;;;7.63;3.60;;;;;;;3.17;31.86;100658.84;5022585;28;20063;-65
2023/03/19 00:21:11;;;;;;;8.00;3.40;;;;;;;3.31;31.56;100661.56;5055519;28;20044;-65
2023/03/19 00:23:38;;;;;;;8.90;3.17;;;;;;;3.16;31.84;100655.41;5038959;28;20399;-65
2023/03/19 00:26:04;;;;;;;8.60;3.27;;;;;;;3.17;32.06;100653.59;5055430;28;20087;-65
2023/03/19 00:28:29;;;;;;;13.67;3.80;;;;;;;3.16;32.05;100650.16;5021347;28;20513;-65
2023/03/19 00:30:56;;;;;;;10.23;4.10;;;;;;;3.19;31.75;100646.50;5038639;28;20086;-65
2023/03/19 00:33:21;;;;;;;10.80;3.60;;;;;;;3.20;31.85;100656.91;5055786;28;20040;-66
2023/03/19 00:35:47;;;;;;;8.93;3.50;;;;;;;3.01;31.89;100651.00;5038345;28;20442;-66
2023/03/19 00:38:13;;;;;;;11.87;3.43;;;;;;;3.14;31.68;100651.16;5005733;28;20055;-66
2023/03/19 00:40:40;;;;;;;10.13;3.70;;;;;;;3.11;32.00;100644.31;5022038;28;20052;-65
2023/03/19 00:43:05;;;;;;;10.07;3.97;;;;;;;3.15;31.83;100653.69;5022028;28;20048;-66
2023/03/19 00:45:31;;;;;;;12.17;3.63;;;;;;;3.15;32.36;100643.19;5038199;28;20385;-65
2023/03/19 00:47:57;;;;;;;8.43;3.20;;;;;;;3.17;32.24;100648.34;5022000;28;20052;-65
2023/03/19 00:50:24;;;;;;;7.73;3.00;;;;;;;3.40;32.09;100630.38;5055307;28;20075;-65
2023/03/19 00:52:51;;;;;;;9.37;2.80;;;;;;;3.32;31.62;100640.47;5021836;28;20040;-65
2023/03/19 00:55:17;;;;;;;8.93;3.43;;;;;;;3.36;31.90;100638.50;5021334;28;20032;-65
2023/03/19 00:57:43;;;;;;;5.60;2.80;;;;;;;3.20;31.84;100635.91;5054736;28;20048;-65
2023/03/19 01:00:10;;;;;;;9.87;3.47;;;;;;;3.45;31.88;100632.72;5037805;28;20055;-65
2023/03/19 01:02:36;;;;;;;9.93;3.10;;;;;;;3.27;32.27;100625.91;5021236;28;20139;-65
2023/03/19 01:05:02;;;;;;;9.93;3.13;;;;;;;3.21;31.91;100616.59;5037540;28;20060;-65
2023/03/19 01:07:28;;;;;;;5.33;2.80;;;;;;;3.17;31.89;100622.13;5038008;28;20110;-65
2023/03/19 01:09:55;;;;;;;6.10;2.93;;;;;;;3.25;32.19;100627.78;5054618;28;20102;-69
2023/03/19 01:12:21;;;;;;;11.67;3.10;;;;;;;3.24;32.20;100629.53;5005112;28;20048;-65
2023/03/19 01:14:46;;;;;;;7.80;2.70;;;;;;;3.30;32.11;100618.72;5054205;28;20048;-65
2023/03/19 01:17:12;;;;;;;4.03;2.50;;;;;;;3.29;31.93;100617.00;5037036;28;20416;-65
2023/03/19 01:19:38;;;;;;;5.33;2.60;;;;;;;3.31;31.98;100616.91;5004746;28;20048;-65
2023/03/19 01:22:04;;;;;;;10.80;2.70;;;;;;;3.38;32.01;100624.34;5020937;28;20143;-66
2023/03/19 01:24:31;;;;;;;8.53;3.53;;;;;;;3.39;31.62;100609.44;5021269;28;20138;-65
2023/03/19 01:26:57;;;;;;;6.80;3.33;;;;;;;3.40;31.85;100616.38;5037526;28;20119;-66
2023/03/19 01:29:34;;;;;;;7.23;2.60;;;;;;;3.54;31.96;100619.06;5052656;28;20598;-65
2023/03/19 01:32:08;;;;;;;8.13;2.83;;;;;;;3.33;31.96;100615.91;5038771;28;20484;-66
2023/03/19 01:34:47;;;;;;;4.70;2.80;;;;;;;3.40;32.13;100617.25;5039160;28;20048;-65
2023/03/19 01:37:15;;;;;;;3.93;2.50;;;;;;;3.30;32.36;100604.75;5020973;28;20044;-66
2023/03/19 01:39:42;;;;;;;7.00;3.03;;;;;;;3.38;31.92;100611.22;5021063;28;20036;-65
2023/03/19 01:42:12;;;;;;;11.13;2.97;;;;;;;3.60;31.91;100615.25;5005257;28;20105;-65
2023/03/19 01:45:34;;;;;;;10.90;3.33;;;;;;;4.06;31.93;100611.53;5012810;28;20136;-65
2023/03/19 01:48:36;;;;;;;9.07;3.67;;;;;;;3.88;31.76;100616.13;4999280;28;20046;-65
2023/03/19 01:51:09;;;;;;;5.60;2.60;;;;;;;3.66;32.62;100602.56;4981883;28;20140;-65
2023/03/19 01:53:58;;;;;;;;;;;;;;;4.06;31.63;100601.84;5000975;28;20148;-68
2023/03/19 01:56:39;;;;;;;;;;;;;;;4.08;31.48;100602.63;5023296;28;20041;-65
2023/03/19 01:59:24;;;;;;;4.43;2.57;;;;;;;3.67;31.76;100588.50;5040178;28;20350;-67
2023/03/19 02:02:13;;;;;;;4.23;2.30;;;;;;;3.67;31.87;100587.66;5022510;28;20097;-65
2023/03/19 02:04:40;;;;;;;10.20;2.63;;;;;;;3.55;32.01;100591.88;5037310;28;20032;-65
2023/03/19 02:07:07;;;;;;;10.10;3.40;;;;;;;3.34;32.26;100591.34;5020789;28;20108;-65
2023/03/19 02:09:33;;;;;;;8.30;3.33;;;;;;;3.21;32.34;100594.78;5037358;28;20422;-65
2023/03/19 02:12:00;;;;;;;13.73;2.67;;;;;;;3.30;32.09;100594.22;5004499;28;20045;-65
2023/03/19 02:14:26;;;;;;;7.93;3.30;;;;;;;3.34;32.04;100593.13;5037553;28;20040;-65
2023/03/19 02:16:53;;;;;;;11.60;3.80;;;;;;;3.32;32.17;100587.94;5069778;28;20037;-65
2023/03/19 02:19:26;;;;;;;10.70;3.87;;;;;;;3.69;32.20;100588.41;5003958;28;20040;-65
2023/03/19 02:21:54;;;;;;;21.63;4.23;;;;;;;3.46;32.08;100590.63;5053494;28;20139;-66
2023/03/19 02:24:26;;;;;;;11.23;4.07;;;;;;;3.58;32.44;100581.19;5037305;28;20060;-64
2023/03/19 02:27:04;;;;;;;15.00;4.10;;;;;;;3.40;32.41;100583.09;5038262;28;20520;-65
2023/03/19 02:29:31;;;;;;;19.37;4.50;;;;;;;3.04;32.45;100569.50;5037278;28;20041;-64
2023/03/19 02:31:59;;;;;;;21.97;4.33;;;;;;;3.16;32.72;100587.16;5004644;28;20045;-65
2023/03/19 02:34:25;;;;;;;12.30;4.40;;;;;;;3.06;32.87;100580.75;5004116;28;20113;-65
2023/03/19 02:36:57;;;;;;;16.67;5.03;;;;;;;3.41;32.53;100592.66;5035618;28;20472;-65
2023/03/19 02:39:42;;;;;;;12.57;4.70;;;;;;;3.38;32.56;100571.00;5053463;28;20037;-65
2023/03/19 02:42:10;;;;;;;11.00;5.27;;;;;;;3.40;32.39;100579.63;5036778;28;20056;-65
2023/03/19 02:44:36;;;;;;;9.43;4.03;;;;;;;3.05;32.48;100583.44;5036882;28;20047;-64
2023/03/19 02:47:03;;;;;;;11.03;3.87;;;;;;;3.26;32.60;100583.06;5036726;28;20040;-65
2023/03/19 02:49:29;;;;;;;9.20;3.63;;;;;;;2.97;32.54;100575.16;5037568;28;20380;-64
2023/03/19 02:51:55;;;;;;;10.13;4.20;;;;;;;3.11;32.61;100575.22;5022268;28;20135;-64
2023/03/19 02:54:21;;;;;;;6.03;3.67;;;;;;;2.95;32.78;100577.06;5057132;28;20063;-64
2023/03/19 02:56:47;;;;;;;10.00;4.20;;;;;;;2.95;32.64;100577.06;5056599;28;20071;-65
2023/03/19 02:59:14;;;;;;;8.13;4.73;;;;;;;3.02;32.93;100576.59;5056776;28;20044;-64
2023/03/19 03:01:39;;;;;;;11.43;4.10;;;;;;;2.92;33.03;100572.81;5023462;28;20066;-64
2023/03/19 03:04:05;;;;;;;7.90;4.10;;;;;;;2.86;32.96;100578.41;5007065;28;20089;-65
2023/03/19 03:06:31;;;;;;;9.80;4.13;;;;;;;2.87;33.00;100568.75;5040283;28;20040;-66
2023/03/19 03:08:57;;;;;;;9.17;4.57;;;;;;;2.70;33.66;100564.47;5023888;28;20396;-65
2023/03/19 03:11:24;;;;;;;9.67;4.23;;;;;;;2.71;33.61;100567.94;5039896;28;20044;-64
2023/03/19 03:13:50;;;;;;;13.47;4.47;;;;;;;2.63;33.66;100567.53;5007024;28;20553;-62
2023/03/19 03:16:16;;;;;;;13.27;4.73;;;;;;;2.66;33.56;100565.56;5039511;28;20048;-63
2023/03/19 03:18:41;;;;;;;12.13;4.80;;;;;;;2.48;33.87;100570.97;5056830;28;20063;-64
2023/03/19 03:21:09;;;;;;;17.53;5.10;;;;;;;2.47;34.48;100567.53;5039598;28;20503;-64
2023/03/19 03:23:35;;;;;;;11.07;4.87;;;;;;;2.65;34.04;100571.75;5039797;28;20424;-58
2023/03/19 03:26:01;;;;;;;11.30;4.77;;;;;;;2.44;34.37;100561.59;5039929;28;20090;-59
2023/03/19 03:28:28;;;;;;;10.20;4.33;;;;;;;2.46;34.27;100560.59;5040231;28;20051;-60
2023/03/19 03:30:58;;;;;;;25.17;5.43;;;;;;;2.81;34.76;100556.84;5039373;28;20386;-58
2023/03/19 03:33:24;;;;;;;18.50;5.40;;;;;;;2.27;34.98;100559.91;5056102;28;20086;-60
2023/03/19 03:35:50;;;;;;;15.63;4.30;;;;;;;2.28;34.98;100564.22;5039083;28;20082;-58
2023/03/19 03:38:17;;;;;;;14.33;4.77;;;;;;;2.06;35.37;100558.44;5073655;28;20056;-60
2023/03/19 03:40:42;;;;;;;15.60;5.00;;;;;;;2.10;35.30;100554.75;5039215;28;20051;-59
2023/03/19 03:43:10;;;;;;;11.87;4.57;;;;;;;2.14;35.08;100555.44;5039377;28;20032;-58
2023/03/19 03:45:36;;;;;;;9.77;4.33;;;;;;;2.08;35.47;100556.59;5055712;28;20056;-57
2023/03/19 03:48:02;;;;;;;8.93;4.63;;;;;;;2.14;35.12;100552.81;5073481;28;20101;-58
2023/03/19 03:50:28;;;;;;;12.23;5.03;;;;;;;2.24;34.94;100556.59;5055611;28;20048;-57
2023/03/19 03:52:57;;;;;;;10.83;4.50;;;;;;;2.19;34.98;100558.63;5055335;28;20044;-57
2023/03/19 03:55:23;;;;;;;8.17;4.37;;;;;;;2.12;35.63;100552.03;5038420;28;20053;-59
2023/03/19 03:57:49;;;;;;;9.80;4.57;;;;;;;2.08;35.55;100547.88;5038676;28;20380;-58
2023/03/19 04:00:15;;;;;;;10.47;3.90;;;;;;;2.04;35.62;100528.88;5038664;28;20400;-61
2023/03/19 04:02:42;;;;;;;9.20;4.10;;;;;;;2.07;35.60;100541.81;5054075;28;20063;-61
2023/03/19 04:05:12;;;;;;;11.73;4.03;;;;;;;2.16;35.58;100535.22;5055058;28;20059;-61
2023/03/19 04:07:38;;;;;;;9.90;4.10;;;;;;;2.19;35.29;100541.13;5055113;28;20041;-61
2023/03/19 04:10:05;;;;;;;13.27;4.57;;;;;;;2.22;35.34;100540.13;5038799;28;20052;-61
2023/03/19 04:12:31;;;;;;;10.77;4.07;;;;;;;2.12;35.61;100537.19;5071833;28;20048;-61
2023/03/19 04:14:57;;;;;;;9.73;4.70;;;;;;;2.20;35.70;100540.19;5055036;28;20055;-57
2023/03/19 04:17:22;;;;;;;17.67;4.63;;;;;;;2.26;35.28;100529.38;5054665;28;20384;-59
2023/03/19 04:19:48;;;;;;;9.30;3.67;;;;;;;2.33;35.32;100517.66;5037959;28;20498;-56
2023/03/19 04:22:14;;;;;;;14.53;4.87;;;;;;;2.52;34.86;100531.41;5054348;28;20045;-56
2023/03/19 04:24:40;;;;;;;15.17;4.57;;;;;;;2.44;35.01;100520.50;5054796;28;20071;-57
2023/03/19 04:27:07;;;;;;;10.80;4.00;;;;;;;2.72;34.81;100520.63;5054752;28;20480;-65
2023/03/19 04:29:34;;;;;;;15.80;4.80;;;;;;;2.62;34.66;100516.00;5038263;28;20538;-60
2023/03/19 04:32:00;;;;;;;13.10;5.03;;;;;;;2.53;34.87;100530.50;5054383;28;20484;-59
2023/03/19 04:34:26;;;;;;;13.53;4.37;;;;;;;2.66;34.72;100528.03;5054824;28;21011;-61
2023/03/19 04:36:52;;;;;;;9.47;4.03;;;;;;;2.66;34.57;100523.59;5072305;28;20135;-62
2023/03/19 04:39:18;;;;;;;14.97;4.23;;;;;;;2.70;34.54;100526.91;5053408;28;20135;-58
2023/03/19 04:41:44;;;;;;;20.63;5.30;;;;;;;2.80;34.64;100531.53;5054460;28;20052;-56
2023/03/19 04:44:36;;;;;;;15.43;4.43;;;;;;;2.95;34.55;100519.34;5057433;28;20435;-58
2023/03/19 04:47:03;;;;;;;18.23;4.27;;;;;;;3.02;34.40;100526.75;5038285;28;20127;-59
2023/03/19 04:49:35;;;;;;;10.40;4.40;;;;;;;3.01;34.42;100524.22;5054822;28;20055;-58
2023/03/19 04:52:02;;;;;;;11.70;4.30;;;;;;;3.09;34.47;100517.56;5038464;28;20058;-56
2023/03/19 04:54:28;;;;;;;11.37;4.13;;;;;;;3.04;34.26;100508.28;5037648;28;20420;-58
2023/03/19 04:56:55;;;;;;;11.80;4.10;;;;;;;3.06;34.46;100515.13;5021726;28;20051;-58
2023/03/19 04:59:24;;;;;;;11.67;4.37;;;;;;;3.19;34.20;100526.63;5054364;28;20051;-57
2023/03/19 05:01:50;;;;;;;13.33;4.53;;;;;;;3.27;34.05;100520.91;5021241;28;20045;-60
2023/03/19 05:04:20;;;;;;;12.17;4.80;;;;;;;3.35;34.29;100503.75;5054288;28;20099;-55
2023/03/19 05:06:52;;;;;;;9.40;4.40;;;;;;;3.29;33.72;100522.50;5038530;28;20301;-61
2023/03/19 05:09:18;;;;;;;11.77;4.73;;;;;;;3.27;33.70;100513.91;5071808;28;20515;-60
2023/03/19 05:11:45;;;;;;;8.63;3.33;;;;;;;3.29;34.26;100525.13;5037599;28;20059;-57
2023/03/19 05:14:16;;;;;;;10.03;4.80;;;;;;;3.33;34.21;100525.78;5038173;28;20045;-57
2023/03/19 05:17:02;;;;;;;8.17;3.33;;;;;;;3.18;34.25;100535.41;5053489;28;20068;-58
2023/03/19 05:19:38;;;;;;;7.93;3.60;;;;;;;3.36;34.24;100521.22;5039095;28;20113;-56
2023/03/19 05:22:07;;;;;;;8.68;4.47;;;;;;;3.37;34.20;100520.28;5054378;28;20045;-59
2023/03/19 05:24:33;;;;;;;9.67;5.03;;;;;;;3.46;33.92;100516.22;5053819;28;20064;-60
2023/03/19 05:27:00;;;;;;;7.70;4.00;;;;;;;3.40;34.40;100511.34;5037523;28;20044;-59
2023/03/19 05:29:51;;;;;;;6.93;3.30;;;;;;;3.45;34.09;100510.16;5025705;28;20106;-61
2023/03/19 05:32:24;;;;;;;9.90;4.20;;;;;;;3.57;34.41;100516.44;5038214;28;20037;-57
2023/03/19 05:34:51;;;;;;;6.67;3.20;;;;;;;3.43;34.21;100503.28;5053571;28;20123;-59
2023/03/19 05:37:18;;;;;;;8.23;3.43;;;;;;;3.63;34.36;100510.00;5037417;28;20052;-60
2023/03/19 05:39:52;;;;;;;9.40;2.87;;;;;;;4.13;33.86;100511.19;5037820;28;20072;-62
2023/03/19 05:42:18;;;;;;;8.43;3.20;;;;;;;3.87;33.72;100506.69;5071152;28;20472;-59
2023/03/19 05:44:44;;;;;;;5.60;2.93;;;;;;;3.68;34.00;100506.13;5037020;28;20059;-57
2023/03/19 05:47:36;;;;;;;6.87;3.10;;;;;;;3.88;33.76;100495.25;5042649;28;20123;-57
2023/03/19 05:50:02;;;;;;;4.97;3.07;;;;;;;4.11;33.91;100504.31;5020763;28;20527;-61
2023/03/19 05:52:29;;;;;;;5.13;3.00;;;;;;;4.22;33.72;100491.34;5037654;28;20123;-62
2023/03/19 05:54:58;;;;;;;7.00;2.90;;;;;;;4.35;33.21;100487.81;5037837;28;20051;-60
2023/03/19 05:57:33;;;;;;;7.73;2.90;;;;;;;4.46;33.17;100495.06;5055158;28;20468;-58
2023/03/19 06:00:07;;;;;;;5.57;2.70;;;;;;;4.92;33.25;100488.47;5053934;28;20143;-57
2023/03/19 06:02:34;;;;;;;3.57;2.90;;;;;;;4.87;33.22;100487.91;5036930;28;20121;-56
2023/03/19 06:05:23;;;;;;;6.70;3.10;;;;;;;4.84;32.93;100483.69;5052950;28;20056;-59
2023/03/19 06:07:56;;;;;;;5.23;3.30;;;;;;;5.30;32.89;100478.84;5037610;28;20053;-56
2023/03/19 06:10:34;;;;;;;16.73;3.30;;;;;;;5.20;32.63;100481.25;5038541;28;20507;-59
2023/03/19 06:13:04;;;;;;;5.43;2.90;;;;;;;5.15;32.42;100479.88;5021393;28;20067;-60
2023/03/19 06:16:01;;;;;;;6.17;3.43;;;;;;;5.22;32.54;100476.72;4983565;28;20049;-60
2023/03/19 06:18:32;;;;;;;7.40;3.23;;;;;;;5.33;32.20;100468.09;4991403;28;20052;-57
2023/03/19 06:20:59;;;;;;;6.47;3.10;;;;;;;5.40;32.18;100469.34;4975472;28;20141;-59
2023/03/19 06:23:25;;;;;;;6.83;3.17;;;;;;;5.47;31.92;100460.09;4959585;28;20328;-56
2023/03/19 06:25:53;;;;;;;9.57;3.87;;;;;;;5.62;31.87;100456.38;5001369;28;20103;-57
2023/03/19 06:28:22;;;;;;;4.50;3.20;;;;;;;5.72;31.63;100449.50;5066881;28;20045;-58
2023/03/19 06:30:48;;;;;;;4.10;2.73;;;;;;;5.80;31.55;100465.63;5039617;28;20127;-59
2023/03/19 06:33:46;;;;;;;6.97;3.10;;;;;;;5.98;31.42;100453.81;5040941;28;20072;-57
2023/03/19 06:36:12;;;;;;;4.03;2.90;;;;;;;6.12;31.15;100460.75;5053151;28;20053;-60
2023/03/19 06:38:38;;;;;;;5.03;2.97;;;;;;;6.31;30.95;100438.19;5036733;28;20048;-60
2023/03/19 06:41:05;;;;;;;7.00;3.27;;;;;;;6.36;30.89;100449.28;5036222;28;20044;-63
2023/03/19 06:43:31;;;;;;;5.17;2.67;;;;;;;6.55;30.75;100444.31;5036363;28;20140;-62
2023/03/19 06:45:57;;;;;;;9.30;3.00;;;;;;;6.70;30.47;100450.25;5051536;28;20175;-60
2023/03/19 06:48:22;;;;;;;4.37;3.20;;;;;;;6.83;30.26;100449.22;5034686;28;20048;-63
2023/03/19 06:50:48;;;;;;;7.13;3.20;;;;;;;7.07;29.94;100453.63;5050141;28;20094;-63
2023/03/19 06:53:14;;;;;;;7.87;3.20;;;;;;;7.19;29.81;100434.19;5045948;28;20048;-60
2023/03/19 06:55:40;;;;;;;8.70;3.63;;;;;;;7.40;29.68;100454.53;5064386;28;20105;-61
2023/03/19 06:58:06;;;;;;;8.53;3.40;;;;;;;7.44;29.28;100447.22;5052018;28;20045;-56
2023/03/19 07:00:32;;;;;;;11.50;4.30;;;;;;;7.66;29.38;100447.22;5035225;28;20037;-58
2023/03/19 07:02:58;;;;;;;5.80;3.70;;;;;;;7.66;29.36;100448.06;5036921;28;20063;-55
2023/03/19 07:05:24;;;;;;;7.90;3.03;;;;;;;7.71;29.04;100434.47;5054390;28;20072;-61
2023/03/19 07:07:50;;;;;;;9.40;3.57;;;;;;;8.03;28.70;100446.00;5036622;28;20043;-57
2023/03/19 07:10:18;;;;;;;5.33;3.63;;;;;;;8.60;28.67;100443.97;5054177;28;20044;-55
2023/03/19 07:12:44;;;;;;;6.07;3.20;;;;;;;8.56;28.27;100442.53;5029193;28;20045;-63
2023/03/19 07:15:11;;;;;;;5.20;3.07;;;;;;;8.88;28.07;100445.16;5043052;28;20036;-63
2023/03/19 07:17:36;;;;;;;5.97;2.60;;;;;;;8.98;27.57;100431.03;5053210;28;20123;-62
2023/03/19 07:20:02;;;;;;;6.73;3.23;;;;;;;9.27;27.39;100434.69;5070684;28;21157;-60
2023/03/19 07:22:29;;;;;;;11.80;3.10;;;;;;;9.51;27.11;100440.59;5070767;28;20048;-61
2023/03/19 07:24:54;;;;;;;5.53;3.47;;;;;;;9.66;26.63;100439.25;5025281;28;20032;-61
2023/03/19 07:27:21;;;;;;;6.33;3.20;;;;;;;10.15;26.64;100435.81;5052789;28;20377;-62
2023/03/19 07:29:47;;;;;;;6.43;3.60;;;;;;;10.63;25.70;100438.56;5063683;28;20128;-55
2023/03/19 07:32:13;;;;;;;5.35;3.08;;;;;;;12.33;23.68;100439.09;5056886;28;20152;-66
2023/03/19 07:34:38;;;;;;;6.45;3.00;;;;;;;15.98;20.87;100433.88;5061451;28;20528;-60
2023/03/19 07:37:05;;;;;;;4.63;2.20;;;;;;;19.65;17.61;100422.97;5072727;28;20048;-61
2023/03/19 07:39:31;;;;;;;4.47;2.50;;;;;;;22.98;14.68;100443.69;5055838;28;20144;-60
2023/03/19 07:41:56;;;;;;;5.07;2.38;;;;;;;25.74;12.71;100437.44;5055312;28;20455;-64
2023/03/19 07:44:23;;;;;;;4.60;2.88;;;;;;;28.13;11.23;100439.53;5072049;28;20045;-65
2023/03/19 07:46:51;;;;;;;4.25;2.60;;;;;;;29.88;9.72;100432.31;5069199;28;20041;-68
2023/03/19 07:49:16;;;;;;;8.77;3.13;;;;;;;31.46;8.52;100431.47;5022371;28;20043;-66
2023/03/19 07:51:43;;;;;;;5.15;3.22;;;;;;;32.36;7.78;100433.25;5051396;28;20098;-64
2023/03/19 07:54:09;;;;;;;3.90;2.72;;;;;;;33.40;7.03;100424.69;5048774;28;20036;-65
2023/03/19 07:56:35;;;;;;;3.63;2.70;;;;;;;34.14;6.32;100411.25;5037070;28;20530;-63
2023/03/19 07:59:00;;;;;;;7.47;2.95;;;;;;;34.55;6.51;100417.09;5031933;28;20111;-65
2023/03/19 08:01:26;;;;;;;4.55;3.10;;;;;;;35.07;6.07;100408.63;5040502;28;20091;-63
2023/03/19 08:03:52;;;;;;;4.35;2.60;;;;;;;35.51;5.79;100395.19;5034772;28;20053;-62
2023/03/19 08:06:18;;;;;;;5.28;2.75;;;;;;;36.24;5.18;100409.00;5035416;28;20060;-63
2023/03/19 08:08:43;;;;;;;3.80;2.60;;;;;;;36.54;4.86;100395.34;4991821;28;20062;-67
2023/03/19 08:11:09;;;;;;;10.98;2.92;;;;;;;37.13;4.92;100399.81;4975927;28;20100;-64
2023/03/19 08:13:35;;;;;;;3.85;2.53;;;;;;;37.43;4.70;100398.25;4974925;28;20721;-64
2023/03/19 08:16:00;;;;;;;4.55;2.72;;;;;;;37.90;4.36;100394.78;4959465;28;20053;-64
2023/03/19 08:18:26;;;;;;;6.45;3.05;;;;;;;38.46;3.85;100390.06;4975177;28;20046;-66
2023/03/19 08:20:52;;;;;;;4.50;2.72;;;;;;;39.06;3.98;100376.25;4990340;28;20105;-64
2023/03/19 08:23:18;;;;;;;6.80;2.83;;;;;;;39.55;3.52;100380.47;4991010;28;20058;-65
2023/03/19 08:25:44;;;;;;;5.97;2.63;;;;;;;39.97;3.59;100369.19;4975222;28;20050;-68
2023/03/19 08:28:10;;;;;;;4.25;2.80;;;;;;;39.90;3.57;100368.06;4991078;28;20512;-65
2023/03/19 08:30:37;;;;;;;5.07;2.70;;;;;;;40.00;3.65;100362.94;4974755;28;20060;-64
2023/03/19 08:33:02;;;;;;;6.10;2.67;;;;;;;39.72;3.40;100355.38;4991098;28;20081;-64
2023/03/19 08:35:29;;;;;;;3.67;2.78;;;;;;;40.22;3.09;100359.06;4991574;28;20054;-65
2023/03/19 08:37:54;;;;;;;10.25;4.85;;;;;;;40.56;3.13;100363.59;4959274;28;20046;-67
2023/03/19 08:40:21;;;;;;;10.98;3.85;;;;;;;40.96;3.02;100337.72;4997287;28;20060;-65
2023/03/19 08:42:47;;;;;;;8.88;3.38;;;;;;;41.07;2.69;100349.25;5034361;28;20488;-67
2023/03/19 08:45:16;;;;;;;6.57;3.70;;;;;;;41.24;2.76;100330.38;5034938;28;20041;-66
2023/03/19 08:47:42;;;;;;;4.72;3.40;;;;;;;41.83;2.62;100349.59;5051772;28;20378;-68
2023/03/19 08:50:09;;;;;;;6.53;3.03;;;;;;;42.04;2.37;100336.34;5017766;28;20485;-65
2023/03/19 08:52:35;;;;;;;5.00;2.95;;;;;;;41.72;2.51;100335.25;5018349;28;20554;-66
2023/03/19 08:55:01;;;;;;;3.67;2.83;;;;;;;40.36;2.71;100337.38;5034028;28;20086;-66
2023/03/19 08:57:32;;;;;;;4.32;2.90;;;;;;;40.95;2.44;100330.50;5034522;28;20447;-66
2023/03/19 08:59:58;;;;;;;6.85;2.70;;;;;;;41.04;2.42;100328.44;5016080;28;20056;-65
2023/03/19 09:02:23;;;;;;;7.53;2.97;;;;;;;40.77;2.48;100323.47;5029593;28;20063;-65
2023/03/19 09:04:49;;;;;;;4.00;2.97;;;;;;;40.54;2.81;100318.53;5015235;28;20045;-66
2023/03/19 09:07:15;;;;;;;11.73;3.75;;;;;;;40.69;2.51;100320.75;5048032;28;20048;-66
2023/03/19 09:09:42;;;;;;;7.60;3.38;;;;;;;41.23;2.52;100314.00;5032431;28;20053;-65
2023/03/19 09:12:10;;;;;;;6.68;3.42;;;;;;;42.19;2.51;100308.53;5016853;28;20049;-65
2023/03/19 09:14:36;;;;;;;4.63;3.25;;;;;;;42.22;2.26;100307.81;5033373;28;20045;-65
2023/03/19 09:17:02;;;;;;;4.55;2.80;;;;;;;41.34;2.35;100304.84;5016611;28;20037;-65
2023/03/19 09:19:28;;;;;;;3.72;3.30;;;;;;;41.03;2.66;100298.09;5026451;28;20056;-65
2023/03/19 09:21:54;;;;;;;3.95;3.00;;;;;;;41.14;2.34;100300.16;5002592;28;20041;-65
2023/03/19 09:24:20;;;;;;;5.43;2.88;;;;;;;41.03;2.45;100290.56;5015208;28;20068;-65
2023/03/19 09:26:46;;;;;;;5.97;2.75;;;;;;;41.56;2.35;100290.50;5013274;28;20072;-65
2023/03/19 09:29:13;;;;;;;5.53;3.42;;;;;;;42.07;2.26;100280.63;5033330;28;20040;-65
2023/03/19 09:31:39;;;;;;;3.15;2.72;;;;;;;42.14;2.23;100271.63;5033447;28;20059;-65
2023/03/19 09:34:06;;;;;;;5.38;3.20;;;;;;;41.79;2.24;100265.72;5037439;28;20380;-66
2023/03/19 09:36:32;;;;;;;6.50;3.53;;;;;;;41.51;2.37;100270.38;5070544;28;20044;-65
2023/03/19 09:38:58;;;;;;;6.32;3.00;;;;;;;41.67;2.57;100257.38;5070710;28;20127;-66
2023/03/19 09:41:30;;;;;;;4.13;2.55;;;;;;;42.60;2.24;100249.50;5036703;28;20058;-67
2023/03/19 09:44:28;;;;;;;5.43;2.40;;;;;;;42.05;2.19;100259.78;5052966;28;20046;-66
2023/03/19 09:47:09;;;;;;;5.30;2.35;;;;;;;42.95;2.30;100258.91;4973903;28;20058;-66
2023/03/19 09:49:42;;;;;;;3.72;2.60;;;;;;;41.39;2.55;100251.66;4958230;28;20113;-66
2023/03/19 09:52:25;;;;;;;3.95;2.53;;;;;;;41.54;2.57;100248.19;4990304;28;20073;-66
2023/03/19 09:54:54;;;;;;;4.00;2.63;;;;;;;41.54;2.39;100244.56;4973554;28;20375;-66
2023/03/19 09:57:20;;;;;;;6.18;2.53;;;;;;;41.73;2.39;100237.22;5035276;28;20125;-67
2023/03/19 09:59:47;;;;;;;3.55;2.22;;;;;;;41.63;2.54;100237.72;5071172;28;20040;-69
2023/03/19 10:02:41;;;;;;;3.40;2.30;;;;;;;42.71;2.10;100236.69;5056458;28;20044;-68
2023/03/19 10:05:15;;;;;;;5.22;2.15;;;;;;;42.13;2.05;100233.72;5040975;28;20059;-66
2023/03/19 10:07:59;;;;;;;3.08;2.10;;;;;;;42.24;2.36;100223.69;5041042;28;20062;-66
2023/03/19 10:10:28;;;;;;;2.33;2.00;;;;;;;41.88;2.58;100229.31;5057277;28;20051;-66
2023/03/19 10:12:59;;;;;;;5.07;2.03;;;;;;;42.07;2.33;100238.75;5057581;28;20044;-66
2023/03/19 10:15:32;;;;;;;2.63;2.03;;;;;;;41.24;2.65;100229.22;5056505;28;20120;-66
2023/03/19 10:18:18;;;;;;;4.28;2.22;;;;;;;41.44;2.50;100226.28;5022955;28;20058;-65
2023/03/19 10:20:45;;;;;;;2.80;2.20;;;;;;;41.19;2.81;100221.88;5040303;28;20053;-66
2023/03/19 10:23:29;;;;;;;2.63;2.33;;;;;;;39.82;2.82;100215.88;5055828;28;20046;-69
2023/03/19 10:25:57;;;;;;;6.78;2.50;;;;;;;38.03;3.51;100217.09;5057699;28;20177;-65
2023/03/19 10:28:26;;;;;;;2.53;2.20;;;;;;;36.57;4.16;100206.50;5057376;28;20047;-66
2023/03/19 10:31:01;;;;;;;3.05;2.60;;;;;;;35.82;4.22;100207.41;5041174;28;20048;-66
2023/03/19 10:33:43;;;;;;;3.60;2.35;;;;;;;35.36;4.76;100205.66;5073967;28;20524;-62
2023/03/19 10:36:10;;;;;;;4.55;2.45;;;;;;;35.16;4.93;100196.91;5056355;28;20037;-64
2023/03/19 10:38:43;;;;;;;3.72;2.25;;;;;;;37.05;4.52;100192.78;5039598;28;20048;-62
2023/03/19 10:41:27;;;;;;;4.03;2.70;;;;;;;38.72;3.54;100192.91;5074436;28;20036;-63
2023/03/19 10:43:55;;;;;;;4.93;2.70;;;;;;;39.67;3.20;100192.22;5040351;28;20063;-63
2023/03/19 10:46:21;;;;;;;7.05;2.97;;;;;;;40.12;2.95;100198.81;5056960;28;20395;-64
2023/03/19 10:48:48;;;;;;;4.40;2.60;;;;;;;40.68;3.10;100202.94;5074808;28;20047;-64
2023/03/19 10:51:22;;;;;;;3.35;2.50;;;;;;;41.31;3.09;100198.75;5057032;28;20044;-64
2023/03/19 10:53:51;;;;;;;4.75;2.80;;;;;;;39.95;3.33;100192.56;5057178;28;20056;-66
2023/03/19 10:56:24;;;;;;;5.00;2.80;;;;;;;38.32;3.72;100188.75;5041065;28;20044;-64
2023/03/19 10:58:59;;;;;;;7.25;2.97;;;;;;;39.00;3.88;100179.50;5040122;28;20048;-63
2023/03/19 11:01:37;;;;;;;4.18;2.92;;;;;;;39.11;3.32;100189.88;5040313;28;20143;-64
2023/03/19 11:04:24;;;;;;;3.65;2.83;;;;;;;39.89;3.28;100180.00;5056861;28;20056;-66
2023/03/19 11:07:17;;;;;;;5.93;2.90;;;;;;;37.49;4.06;100180.78;5057108;28;20052;-66
2023/03/19 11:09:50;;;;;;;5.28;2.80;;;;;;;37.12;4.53;100173.78;5023631;28;20052;-65
2023/03/19 11:12:18;;;;;;;4.43;2.58;;;;;;;37.86;4.04;100181.00;5007132;28;20048;-66
2023/03/19 11:14:46;;;;;;;3.25;2.80;;;;;;;38.49;3.75;100170.09;5039930;28;20044;-66
2023/03/19 11:17:25;;;;;;;10.68;2.60;;;;;;;39.52;3.89;100175.34;5073195;28;20055;-66
2023/03/19 11:19:55;;;;;;;7.00;2.78;;;;;;;39.23;3.65;100169.75;5039953;28;20052;-68
2023/03/19 11:22:32;;;;;;;4.70;2.50;;;;;;;39.31;3.50;100174.41;5023016;28;20052;-70
2023/03/19 11:25:13;;;;;;;4.70;2.50;;;;;;;39.48;4.03;100164.06;5023304;28;20044;-71
2023/03/19 11:27:39;;;;;;;4.93;2.17;;;;;;;38.81;3.77;100159.56;5039696;28;20080;-70
2023/03/19 11:30:17;;;;;;;4.13;2.00;;;;;;;38.59;4.00;100146.75;5039619;28;20080;-74
2023/03/19 11:32:43;;;;;;;2.65;1.48;;;;;;;37.60;4.54;100146.06;5006636;28;20089;-69
2023/03/19 11:35:28;;;;;;;2.78;2.10;;;;;;;37.46;4.46;100143.41;5039457;28;20048;-71
2023/03/19 11:37:55;;;;;;;3.70;2.78;;;;;;;36.92;4.69;100139.13;5056188;28;20051;-70
2023/03/19 11:40:21;;;;;;;4.28;2.95;;;;;;;36.53;4.75;100133.53;5040003;28;20045;-70
2023/03/19 11:43:24;;;;;;;4.90;2.90;;;;;;;37.07;4.93;100133.16;5056250;28;20051;-70